createdAt,value
2018-02-09T00:01:07.595Z,-5.20
2018-02-09T00:03:35.178Z,-5.20
2018-02-09T00:06:02.992Z,-5.20
2018-02-09T00:08:32.146Z,-5.20
2018-02-09T00:10:59.914Z,-5.10
2018-02-09T00:13:27.526Z,-5.10
2018-02-09T00:15:55.150Z,-5.00
2018-02-09T00:18:22.743Z,-5.00
2018-02-09T00:20:50.369Z,-5.00
2018-02-09T00:23:18.211Z,-4.90
2018-02-09T00:25:45.858Z,-4.90
2018-02-09T00:28:13.451Z,-4.80
2018-02-09T00:30:41.093Z,-4.90
2018-02-09T00:33:08.730Z,-4.90
2018-02-09T00:35:36.316Z,-4.90
2018-02-09T00:38:03.898Z,-4.90
2018-02-09T00:40:31.511Z,-4.90
2018-02-09T00:42:59.124Z,-5.00
2018-02-09T00:45:26.709Z,-4.90
2018-02-09T00:47:54.344Z,-4.90
2018-02-09T00:50:21.927Z,-4.90
2018-02-09T00:52:49.545Z,-4.80
2018-02-09T00:55:17.200Z,-4.90
2018-02-09T00:57:44.810Z,-4.90
2018-02-09T01:00:12.401Z,-4.90
2018-02-09T01:02:40.030Z,-4.90
2018-02-09T01:05:07.667Z,-4.90
2018-02-09T01:07:35.273Z,-4.90
2018-02-09T01:10:02.859Z,-4.90
2018-02-09T01:12:30.492Z,-4.90
2018-02-09T01:14:58.080Z,-4.90
2018-02-09T01:17:25.663Z,-4.90
2018-02-09T01:19:53.284Z,-4.90
2018-02-09T01:22:20.884Z,-4.80
2018-02-09T01:24:48.503Z,-4.80
2018-02-09T01:27:16.122Z,-4.80
2018-02-09T01:29:44.362Z,-4.80
2018-02-09T01:32:11.990Z,-4.80
2018-02-09T01:34:39.570Z,-4.80
2018-02-09T01:37:07.187Z,-4.80
2018-02-09T01:39:34.770Z,-4.80
2018-02-09T01:42:02.393Z,-4.80
2018-02-09T01:44:29.990Z,-4.80
2018-02-09T01:46:57.609Z,-4.80
2018-02-09T01:49:25.235Z,-4.80
2018-02-09T01:51:52.861Z,-4.80
2018-02-09T01:54:20.438Z,-4.80
2018-02-09T01:56:48.071Z,-4.80
2018-02-09T01:59:15.725Z,-4.80
2018-02-09T02:01:43.312Z,-4.80
2018-02-09T02:04:10.891Z,-4.70
2018-02-09T02:06:38.515Z,-4.70
2018-02-09T02:09:06.102Z,-4.70
2018-02-09T02:11:33.691Z,-4.60
2018-02-09T02:14:02.083Z,-4.60
2018-02-09T02:16:29.668Z,-4.60
2018-02-09T02:18:57.259Z,-4.50
2018-02-09T02:21:24.882Z,-4.50
2018-02-09T02:23:52.473Z,-4.50
2018-02-09T02:26:20.106Z,-4.40
2018-02-09T02:28:47.700Z,-4.40
2018-02-09T02:31:15.276Z,-4.40
2018-02-09T02:33:42.895Z,-4.40
2018-02-09T02:36:10.539Z,-4.40
2018-02-09T02:38:38.124Z,-4.40
2018-02-09T02:41:05.720Z,-4.30
2018-02-09T02:43:33.344Z,-4.30
2018-02-09T02:46:00.927Z,-4.30
2018-02-09T02:48:28.559Z,-4.30
2018-02-09T02:50:56.140Z,-4.40
2018-02-09T02:53:23.776Z,-4.40
2018-02-09T02:55:51.364Z,-4.50
2018-02-09T02:58:18.951Z,-4.40
2018-02-09T03:00:46.579Z,-4.40
2018-02-09T03:03:14.163Z,-4.50
2018-02-09T03:05:41.792Z,-4.50
2018-02-09T03:08:09.367Z,-4.50
2018-02-09T03:10:36.951Z,-4.60
2018-02-09T03:13:04.585Z,-4.60
2018-02-09T03:15:32.177Z,-4.60
2018-02-09T03:17:59.804Z,-4.60
2018-02-09T03:20:27.414Z,-4.60
2018-02-09T03:22:55.042Z,-4.50
2018-02-09T03:25:22.622Z,-4.40
2018-02-09T03:27:50.248Z,-4.40
2018-02-09T03:30:17.827Z,-4.30
2018-02-09T03:32:45.447Z,-4.40
2018-02-09T03:35:13.031Z,-4.50
2018-02-09T03:37:40.654Z,-4.50
2018-02-09T03:40:08.244Z,-4.60
2018-02-09T03:42:35.872Z,-4.60
2018-02-09T03:45:03.497Z,-4.60
2018-02-09T03:47:31.084Z,-4.50
2018-02-09T03:49:58.716Z,-4.40
2018-02-09T03:52:26.290Z,-4.40
2018-02-09T03:54:53.915Z,-4.40
2018-02-09T03:57:21.491Z,-4.40
2018-02-09T03:59:49.075Z,-4.40
2018-02-09T04:02:16.702Z,-4.50
2018-02-09T04:04:44.294Z,-4.50
2018-02-09T04:07:11.915Z,-4.50
2018-02-09T04:09:39.508Z,-4.60
2018-02-09T04:12:07.153Z,-4.60
2018-02-09T04:14:34.743Z,-4.60
2018-02-09T04:17:02.334Z,-4.70
2018-02-09T04:19:30.719Z,-4.80
2018-02-09T04:21:59.126Z,-4.80
2018-02-09T04:24:26.712Z,-4.80
2018-02-09T04:26:54.312Z,-4.80
2018-02-09T04:29:22.698Z,-4.80
2018-02-09T04:31:51.043Z,-4.90
2018-02-09T04:34:18.667Z,-4.90
2018-02-09T04:36:46.257Z,-4.80
2018-02-09T04:39:13.836Z,-4.80
2018-02-09T04:41:43.077Z,-4.80
2018-02-09T04:44:10.662Z,-4.80
2018-02-09T04:46:38.280Z,-4.80
2018-02-09T04:49:06.629Z,-4.80
2018-02-09T04:51:34.266Z,-4.80
2018-02-09T04:54:01.847Z,-4.80
2018-02-09T04:56:29.423Z,-4.80
2018-02-09T04:58:57.065Z,-4.80
2018-02-09T05:01:24.644Z,-4.90
2018-02-09T05:03:52.233Z,-4.90
2018-02-09T05:06:19.856Z,-4.90
2018-02-09T05:08:47.437Z,-4.90
2018-02-09T05:11:15.054Z,-4.80
2018-02-09T05:13:42.669Z,-4.80
2018-02-09T05:16:10.301Z,-4.80
2018-02-09T05:18:37.887Z,-4.80
2018-02-09T05:21:05.520Z,-4.80
2018-02-09T05:23:33.108Z,-4.90
2018-02-09T05:26:00.691Z,-4.90
2018-02-09T05:28:28.310Z,-4.80
2018-02-09T05:30:55.930Z,-4.80
2018-02-09T05:33:23.519Z,-4.80
2018-02-09T05:35:51.100Z,-4.80
2018-02-09T05:38:18.719Z,-4.80
2018-02-09T05:40:46.303Z,-4.80
2018-02-09T05:43:13.934Z,-4.80
2018-02-09T05:45:41.553Z,-4.80
2018-02-09T05:48:09.135Z,-4.80
2018-02-09T05:50:36.767Z,-4.90
2018-02-09T05:53:04.344Z,-4.90
2018-02-09T05:55:31.922Z,-4.90
2018-02-09T05:57:59.558Z,-4.90
2018-02-09T06:00:27.139Z,-4.90
2018-02-09T06:02:54.722Z,-4.80
2018-02-09T06:05:22.342Z,-4.80
2018-02-09T06:07:49.928Z,-4.80
2018-02-09T06:10:18.331Z,-4.80
2018-02-09T06:12:45.919Z,-4.80
2018-02-09T06:15:13.726Z,-4.70
2018-02-09T06:17:41.347Z,-4.70
2018-02-09T06:20:08.929Z,-4.70
2018-02-09T06:22:36.562Z,-4.70
2018-02-09T06:25:04.151Z,-4.70
2018-02-09T06:27:31.732Z,-4.70
2018-02-09T06:30:00.126Z,-4.70
2018-02-09T06:32:27.799Z,-4.70
2018-02-09T06:34:55.391Z,-4.70
2018-02-09T06:37:22.970Z,-4.70
2018-02-09T06:39:50.599Z,-4.70
2018-02-09T06:42:18.189Z,-4.70
2018-02-09T06:44:45.777Z,-4.70
2018-02-09T06:47:14.177Z,-4.60
2018-02-09T06:49:41.757Z,-4.60
2018-02-09T06:52:09.383Z,-4.60
2018-02-09T06:54:37.729Z,-4.70
2018-02-09T06:57:05.327Z,-4.70
2018-02-09T07:02:06.994Z,-4.70
2018-02-09T07:04:34.591Z,-4.70
2018-02-09T07:07:02.175Z,-4.70
2018-02-09T07:09:29.821Z,-4.70
2018-02-09T07:11:57.410Z,-4.60
2018-02-09T07:14:24.995Z,-4.50
2018-02-09T07:16:55.611Z,-4.50
2018-02-09T07:19:25.971Z,-4.40
2018-02-09T07:21:55.258Z,-4.40
2018-02-09T07:24:23.361Z,-4.30
2018-02-09T07:26:51.407Z,-4.30
2018-02-09T07:29:19.594Z,-4.20
2018-02-09T07:31:47.755Z,-4.20
2018-02-09T07:34:15.827Z,-4.10
2018-02-09T07:36:45.031Z,-4.00
2018-02-09T07:39:13.235Z,-4.00
2018-02-09T07:41:42.667Z,-3.80
2018-02-09T07:44:10.300Z,-3.80
2018-02-09T07:46:37.891Z,-3.80
2018-02-09T07:49:05.540Z,-3.60
2018-02-09T07:51:33.122Z,-3.60
2018-02-09T07:54:00.704Z,-3.50
2018-02-09T07:56:29.174Z,-3.40
2018-02-09T07:58:56.774Z,-3.30
2018-02-09T08:01:24.389Z,-3.20
2018-02-09T08:03:51.988Z,-3.10
2018-02-09T08:06:19.618Z,-3.00
2018-02-09T08:08:47.232Z,-2.90
2018-02-09T08:11:14.824Z,-2.80
2018-02-09T08:13:42.443Z,-2.70
2018-02-09T08:16:10.029Z,-2.60
2018-02-09T08:18:37.652Z,-2.50
2018-02-09T08:21:05.309Z,-2.40
2018-02-09T08:23:32.961Z,-2.30
2018-02-09T08:26:00.598Z,-2.20
2018-02-09T08:28:28.180Z,-2.10
2018-02-09T08:30:55.786Z,-2.00
2018-02-09T08:33:23.407Z,-1.90
2018-02-09T08:35:51.591Z,-1.80
2018-02-09T08:38:19.629Z,-1.70
2018-02-09T08:40:47.261Z,-1.60
2018-02-09T08:43:15.326Z,-1.50
2018-02-09T08:45:43.513Z,-1.40
2018-02-09T08:48:11.511Z,-1.40
2018-02-09T08:50:40.569Z,-1.20
2018-02-09T08:53:08.677Z,-1.20
2018-02-09T08:55:36.360Z,-1.00
2018-02-09T08:58:03.944Z,-1.00
2018-02-09T09:00:31.567Z,-0.80
2018-02-09T09:02:59.160Z,-0.70
2018-02-09T09:05:26.751Z,-0.60
2018-02-09T09:07:54.379Z,-0.50
2018-02-09T09:10:21.966Z,-0.30
2018-02-09T09:12:49.597Z,-0.10
2018-02-09T09:15:17.225Z,0.00
2018-02-09T09:17:44.818Z,0.20
2018-02-09T09:20:12.455Z,0.30
2018-02-09T09:22:40.070Z,0.40
2018-02-09T09:25:07.685Z,0.50
2018-02-09T09:27:35.270Z,0.70
2018-02-09T09:30:02.885Z,0.80
2018-02-09T09:32:30.459Z,0.90
2018-02-09T09:34:58.083Z,1.00
2018-02-09T09:37:25.665Z,1.10
2018-02-09T09:39:53.247Z,1.20
2018-02-09T09:42:20.886Z,1.30
2018-02-09T09:44:48.502Z,1.40
2018-02-09T09:47:16.130Z,1.50
2018-02-09T09:49:43.719Z,1.60
2018-02-09T09:52:11.743Z,1.70
2018-02-09T09:54:39.364Z,1.80
2018-02-09T09:57:08.162Z,1.90
2018-02-09T09:59:36.239Z,1.90
2018-02-09T10:02:04.273Z,2.00
2018-02-09T10:04:32.422Z,2.00
2018-02-09T10:07:00.482Z,2.00
2018-02-09T10:09:28.682Z,2.10
2018-02-09T10:11:57.508Z,2.20
2018-02-09T10:14:25.984Z,2.10
2018-02-09T10:16:54.289Z,2.20
2018-02-09T10:19:22.556Z,2.20
2018-02-09T10:21:50.622Z,2.20
2018-02-09T10:24:20.717Z,2.30
2018-02-09T10:26:48.992Z,2.30
2018-02-09T10:29:17.169Z,2.30
2018-02-09T10:31:45.893Z,2.40
2018-02-09T10:34:13.847Z,2.50
2018-02-09T10:36:42.089Z,2.50
2018-02-09T10:39:10.104Z,2.60
2018-02-09T10:41:37.793Z,2.60
2018-02-09T10:44:05.421Z,2.70
2018-02-09T10:46:33.774Z,2.90
2018-02-09T10:49:02.189Z,2.90
2018-02-09T10:51:30.257Z,2.90
2018-02-09T10:53:58.580Z,2.90
2018-02-09T10:56:27.523Z,2.80
2018-02-09T10:58:55.628Z,2.80
2018-02-09T11:01:29.172Z,2.90
2018-02-09T11:03:57.834Z,2.90
2018-02-09T11:06:25.982Z,2.90
2018-02-09T11:08:54.034Z,2.90
2018-02-09T11:11:23.264Z,2.90
2018-02-09T11:13:51.321Z,2.90
2018-02-09T11:16:19.420Z,2.80
2018-02-09T11:18:47.527Z,2.80
2018-02-09T11:21:15.153Z,2.80
2018-02-09T11:23:42.772Z,2.90
2018-02-09T11:26:10.361Z,2.80
2018-02-09T11:28:38.038Z,2.90
2018-02-09T11:31:05.668Z,2.90
2018-02-09T11:33:33.295Z,2.90
2018-02-09T11:36:00.927Z,2.90
2018-02-09T11:38:28.551Z,3.00
2018-02-09T11:40:56.188Z,3.00
2018-02-09T11:43:24.024Z,3.10
2018-02-09T11:45:52.992Z,3.20
2018-02-09T11:48:21.180Z,3.20
2018-02-09T11:50:49.221Z,3.20
2018-02-09T11:53:17.309Z,3.20
2018-02-09T11:55:45.507Z,3.20
2018-02-09T11:58:13.530Z,3.20
2018-02-09T12:00:41.621Z,3.20
2018-02-09T12:03:09.793Z,3.30
2018-02-09T12:05:41.042Z,3.30
2018-02-09T12:08:10.091Z,3.20
2018-02-09T12:10:38.134Z,3.20
2018-02-09T12:13:06.340Z,3.20
2018-02-09T12:15:34.012Z,3.20
2018-02-09T12:18:01.591Z,3.20
2018-02-09T12:20:29.205Z,3.20
2018-02-09T12:22:56.778Z,3.10
2018-02-09T12:25:24.385Z,3.20
2018-02-09T12:27:51.990Z,3.20
2018-02-09T12:30:19.638Z,3.20
2018-02-09T12:32:47.205Z,3.30
2018-02-09T12:35:14.808Z,3.30
2018-02-09T12:37:43.220Z,3.40
2018-02-09T12:40:10.828Z,3.30
2018-02-09T12:42:38.404Z,3.40
2018-02-09T12:45:06.465Z,3.30
2018-02-09T12:47:34.835Z,3.30
2018-02-09T12:50:02.416Z,3.30
2018-02-09T12:52:30.023Z,3.30
2018-02-09T12:54:57.595Z,3.30
2018-02-09T12:57:25.794Z,3.30
2018-02-09T12:59:54.674Z,3.30
2018-02-09T13:02:22.762Z,3.30
2018-02-09T13:04:55.444Z,3.30
2018-02-09T13:07:23.211Z,3.30
2018-02-09T13:09:51.421Z,3.40
2018-02-09T13:12:31.165Z,3.40
2018-02-09T13:14:59.439Z,3.40
2018-02-09T13:17:27.488Z,3.40
2018-02-09T13:19:55.746Z,3.50
2018-02-09T13:22:35.830Z,3.50
2018-02-09T13:25:03.922Z,3.40
2018-02-09T13:27:33.282Z,3.40
2018-02-09T13:30:01.474Z,3.40
2018-02-09T13:32:42.143Z,3.40
2018-02-09T13:35:10.490Z,3.40
2018-02-09T13:37:38.451Z,3.30
2018-02-09T13:40:06.537Z,3.30
2018-02-09T13:42:34.637Z,3.30
2018-02-09T13:45:02.732Z,3.30
2018-02-09T13:47:30.762Z,3.30
2018-02-09T13:49:59.055Z,3.30
2018-02-09T13:52:29.150Z,3.30
2018-02-09T13:54:56.795Z,3.20
2018-02-09T13:57:24.359Z,3.20
2018-02-09T13:59:51.921Z,3.20
2018-02-09T14:02:19.525Z,3.20
2018-02-09T14:04:47.127Z,3.20
2018-02-09T14:07:14.725Z,3.20
2018-02-09T14:09:42.337Z,3.20
2018-02-09T14:12:09.941Z,3.10
2018-02-09T14:14:37.523Z,3.10
2018-02-09T14:17:05.090Z,3.10
2018-02-09T14:19:32.707Z,3.00
2018-02-09T14:22:00.290Z,3.00
2018-02-09T14:24:28.440Z,2.90
2018-02-09T14:26:56.469Z,2.90
2018-02-09T14:29:24.809Z,2.90
2018-02-09T14:31:52.862Z,2.90
2018-02-09T14:34:21.046Z,2.90
2018-02-09T14:36:49.144Z,2.80
2018-02-09T14:39:16.790Z,2.90
2018-02-09T14:41:44.351Z,2.80
2018-02-09T14:44:11.972Z,2.80
2018-02-09T14:46:39.542Z,2.80
2018-02-09T14:49:07.149Z,2.80
2018-02-09T14:51:34.744Z,2.80
2018-02-09T14:54:03.129Z,2.70
2018-02-09T14:56:31.454Z,2.60
2018-02-09T14:58:59.055Z,2.60
2018-02-09T15:01:27.074Z,2.50
2018-02-09T15:03:54.737Z,2.40
2018-02-09T15:06:22.296Z,2.40
2018-02-09T15:08:50.260Z,2.30
2018-02-09T15:11:18.373Z,2.30
2018-02-09T15:13:46.545Z,2.20
2018-02-09T15:16:14.775Z,2.20
2018-02-09T15:18:42.825Z,2.10
2018-02-09T15:21:11.022Z,2.00
2018-02-09T15:23:39.069Z,1.90
2018-02-09T15:26:06.722Z,1.80
2018-02-09T15:28:34.309Z,1.70
2018-02-09T15:31:01.957Z,1.60
2018-02-09T15:33:29.522Z,1.60
2018-02-09T15:35:57.091Z,1.50
2018-02-09T15:38:24.705Z,1.40
2018-02-09T15:40:52.280Z,1.30
2018-02-09T15:43:20.214Z,1.20
2018-02-09T15:45:49.154Z,1.00
2018-02-09T15:48:16.810Z,1.00
2018-02-09T15:50:45.288Z,0.90
2018-02-09T15:53:12.936Z,0.90
2018-02-09T15:55:40.973Z,0.90
2018-02-09T15:58:09.632Z,0.80
2018-02-09T16:00:39.738Z,0.80
2018-02-09T16:03:07.906Z,0.70
2018-02-09T16:05:36.136Z,0.60
2018-02-09T16:08:04.037Z,0.50
2018-02-09T16:10:32.659Z,0.40
2018-02-09T16:13:00.730Z,0.40
2018-02-09T16:15:28.388Z,0.40
2018-02-09T16:17:56.018Z,0.20
2018-02-09T16:20:23.590Z,0.20
2018-02-09T16:22:51.163Z,0.20
2018-02-09T16:25:18.784Z,0.10
2018-02-09T16:27:46.382Z,0.10
2018-02-09T16:30:13.990Z,0.00
2018-02-09T16:32:41.571Z,-0.10
2018-02-09T16:38:03.020Z,-0.30
2018-02-09T16:40:33.003Z,-0.40
2018-02-09T16:43:01.176Z,-0.30
2018-02-09T16:45:29.021Z,-0.30
2018-02-09T16:47:57.246Z,-0.30
2018-02-09T16:50:26.021Z,-0.30
2018-02-09T16:52:53.691Z,-0.30
2018-02-09T16:55:21.265Z,-0.30
2018-02-09T16:57:49.253Z,-0.30
2018-02-09T17:00:18.168Z,-0.30
2018-02-09T17:02:46.150Z,-0.30
2018-02-09T17:05:14.237Z,-0.20
2018-02-09T17:07:42.237Z,-0.30
2018-02-09T17:10:14.223Z,-0.30
2018-02-09T17:12:42.699Z,-0.30
2018-02-09T17:15:10.266Z,-0.30
2018-02-09T17:17:38.604Z,-0.30
2018-02-09T17:20:07.434Z,-0.30
2018-02-09T17:22:35.724Z,-0.40
2018-02-09T17:25:04.596Z,-0.40
2018-02-09T17:27:32.618Z,-0.60
2018-02-09T17:30:00.786Z,-0.70
2018-02-09T17:32:29.026Z,-0.80
2018-02-09T17:34:57.247Z,-0.90
2018-02-09T17:37:26.419Z,-1.00
2018-02-09T17:39:54.432Z,-1.10
2018-02-09T17:42:22.549Z,-1.10
2018-02-09T17:44:50.712Z,-1.20
2018-02-09T17:47:18.969Z,-1.20
2018-02-09T17:49:47.068Z,-1.30
2018-02-09T17:52:15.156Z,-1.30
2018-02-09T17:54:43.150Z,-1.30
2018-02-09T17:57:11.256Z,-1.30
2018-02-09T17:59:40.049Z,-1.30
2018-02-09T18:02:08.819Z,-1.30
2018-02-09T18:04:37.229Z,-1.30
2018-02-09T18:07:04.818Z,-1.30
2018-02-09T18:09:32.442Z,-1.20
2018-02-09T18:12:00.013Z,-1.20
2018-02-09T18:14:27.648Z,-1.20
2018-02-09T18:16:55.221Z,-1.20
2018-02-09T18:19:22.846Z,-1.20
2018-02-09T18:21:50.416Z,-1.20
2018-02-09T18:24:18.035Z,-1.20
2018-02-09T18:26:45.639Z,-1.20
2018-02-09T18:29:13.305Z,-1.30
2018-02-09T18:31:40.870Z,-1.30
2018-02-09T18:34:08.535Z,-1.30
2018-02-09T18:36:36.100Z,-1.30
2018-02-09T18:39:03.783Z,-1.20
2018-02-09T18:41:31.355Z,-1.20
2018-02-09T18:43:58.944Z,-1.10
2018-02-09T18:46:26.570Z,-1.00
2018-02-09T18:48:54.277Z,-0.90
2018-02-09T18:51:21.922Z,-0.80
2018-02-09T18:53:49.496Z,-0.80
2018-02-09T18:56:17.128Z,-0.80
2018-02-09T18:58:44.720Z,-0.70
2018-02-09T19:01:12.286Z,-0.70
2018-02-09T19:03:40.252Z,-0.80
2018-02-09T19:06:08.192Z,-0.80
2018-02-09T19:08:35.841Z,-0.90
2018-02-09T19:11:03.761Z,-1.00
2018-02-09T19:13:31.742Z,-1.10
2018-02-09T19:15:59.877Z,-1.20
2018-02-09T19:18:27.981Z,-1.30
2018-02-09T19:20:55.982Z,-1.40
2018-02-09T19:23:24.041Z,-1.50
2018-02-09T19:25:52.164Z,-1.60
2018-02-09T19:28:20.413Z,-1.70
2018-02-09T19:30:49.304Z,-1.80
2018-02-09T19:33:17.356Z,-1.80
2018-02-09T19:35:46.126Z,-1.80
2018-02-09T19:38:14.150Z,-1.80
2018-02-09T19:40:42.215Z,-1.80
2018-02-09T19:43:10.330Z,-1.80
2018-02-09T19:45:38.472Z,-1.80
2018-02-09T19:48:06.436Z,-1.70
2018-02-09T19:50:34.381Z,-1.60
2018-02-09T19:53:02.623Z,-1.50
2018-02-09T19:55:30.692Z,-1.40
2018-02-09T19:58:00.872Z,-1.30
2018-02-09T20:00:28.474Z,-1.20
2018-02-09T20:02:56.228Z,-1.10
2018-02-09T20:05:24.577Z,-1.10
2018-02-09T20:07:52.162Z,-1.10
2018-02-09T20:10:20.384Z,-1.00
2018-02-09T20:12:48.028Z,-1.00
2018-02-09T20:15:16.059Z,-0.90
2018-02-09T20:17:43.713Z,-0.90
2018-02-09T20:20:11.291Z,-0.80
2018-02-09T20:22:38.866Z,-0.80
2018-02-09T20:25:06.545Z,-0.80
2018-02-09T20:27:34.158Z,-0.80
2018-02-09T20:30:01.750Z,-0.80
2018-02-09T20:32:29.358Z,-0.70
2018-02-09T20:34:56.927Z,-0.70
2018-02-09T20:37:25.313Z,-0.70
2018-02-09T20:39:52.883Z,-0.70
2018-02-09T20:42:20.464Z,-0.70
2018-02-09T20:44:48.101Z,-0.70
2018-02-09T20:47:15.689Z,-0.60
2018-02-09T20:49:43.305Z,-0.60
2018-02-09T20:52:10.876Z,-0.60
2018-02-09T20:54:38.447Z,-0.60
2018-02-09T20:57:06.156Z,-0.60
2018-02-09T20:59:33.736Z,-0.50
2018-02-09T21:02:01.303Z,-0.50
2018-02-09T21:04:28.909Z,-0.50
2018-02-09T21:06:56.570Z,-0.50
2018-02-09T21:09:24.147Z,-0.50
2018-02-09T21:11:51.735Z,-0.50
2018-02-09T21:14:19.360Z,-0.50
2018-02-09T21:16:46.921Z,-0.50
2018-02-09T21:19:15.299Z,-0.40
2018-02-09T21:21:43.637Z,-0.40
2018-02-09T21:24:11.248Z,-0.40
2018-02-09T21:26:38.821Z,-0.40
2018-02-09T21:29:06.461Z,-0.40
2018-02-09T21:31:34.866Z,-0.40
2018-02-09T21:34:02.441Z,-0.50
2018-02-09T21:36:30.012Z,-0.50
2018-02-09T21:38:57.716Z,-0.50
2018-02-09T21:41:25.296Z,-0.50
2018-02-09T21:43:53.665Z,-0.50
2018-02-09T21:46:22.002Z,-0.60
2018-02-09T21:48:49.619Z,-0.60
2018-02-09T21:51:17.192Z,-0.60
2018-02-09T21:53:44.773Z,-0.60
2018-02-09T21:56:12.372Z,-0.60
2018-02-09T21:58:39.937Z,-0.60
2018-02-09T22:01:07.540Z,-0.60
2018-02-09T22:03:35.145Z,-0.60
2018-02-09T22:06:02.762Z,-0.60
2018-02-09T22:08:30.338Z,-0.70
2018-02-09T22:10:57.911Z,-0.70
2018-02-09T22:13:25.521Z,-0.70
2018-02-09T22:15:53.862Z,-0.70
2018-02-09T22:18:21.424Z,-0.70
2018-02-09T22:20:49.044Z,-0.70
2018-02-09T22:23:16.627Z,-0.70
2018-02-09T22:25:44.233Z,-0.70
2018-02-09T22:28:11.792Z,-0.70
2018-02-09T22:30:40.172Z,-0.90
2018-02-09T22:33:08.509Z,-1.00
2018-02-09T22:35:36.079Z,-1.00
2018-02-09T22:38:03.800Z,-1.10
2018-02-09T22:40:31.385Z,-1.20
2018-02-09T22:42:58.962Z,-1.40
2018-02-09T22:45:26.564Z,-1.60
2018-02-09T22:47:54.190Z,-1.80
2018-02-09T22:50:21.789Z,-1.90
2018-02-09T22:52:49.400Z,-2.10
2018-02-09T22:55:17.528Z,-2.20
2018-02-09T22:57:45.632Z,-2.30
2018-02-09T23:00:13.639Z,-2.40
2018-02-09T23:02:43.023Z,-2.50
2018-02-09T23:05:11.106Z,-2.60
2018-02-09T23:07:39.075Z,-2.70
2018-02-09T23:10:07.160Z,-2.80
2018-02-09T23:12:35.303Z,-2.80
2018-02-09T23:15:03.330Z,-2.80
2018-02-09T23:17:31.552Z,-2.90
2018-02-09T23:20:00.390Z,-3.00
2018-02-09T23:22:28.455Z,-3.00
2018-02-09T23:24:56.461Z,-3.10
2018-02-09T23:27:24.293Z,-3.10
2018-02-09T23:29:52.306Z,-3.10
2018-02-09T23:32:21.399Z,-3.20
2018-02-09T23:34:49.485Z,-3.20
2018-02-09T23:37:21.342Z,-3.20
2018-02-09T23:39:49.262Z,-3.30
2018-02-09T23:42:17.074Z,-3.30
2018-02-09T23:44:44.912Z,-3.40
2018-02-09T23:47:12.828Z,-3.40
2018-02-09T23:49:40.393Z,-3.40
2018-02-09T23:52:09.499Z,-3.50
2018-02-09T23:54:37.079Z,-3.50
2018-02-09T23:57:04.732Z,-3.50
2018-02-09T23:59:32.307Z,-3.50
